Aviation Digital Data Service (ADDS)

Output produced by METARs form (0254 UTC 01 March 2015)
found at http://aviationweather.gov/adds/metars/
 
KLAX 010105Z 0101/0206 25011KT P6SM SCT030 BKN150 
     FM010200 28012KT 6SM -SHRA SCT025 BKN040 
     FM010700 08009KT 6SM -SHRA BR SCT025 OVC035 
     FM011100 08007KT P6SM -SHRA VCTS SCT025CB BKN035 
     PROB30 0111/0115 20020KT -TSRA OVC025CB 
     FM011800 13005KT P6SM -SHRA SCT025 OVC040 
     FM012000 24011KT P6SM -SHRA SCT025 OVC045 
     FM020400 25006KT P6SM VCSH SCT025 BKN035